Time;durP1;ratioP1;P1;durP2;ratioP2;P2;SDS_P1;SDS_P2;PMS_P1;PMS_P2;Temp;Humidity;BMP_temperature;BMP_pressure;BME280_temperature;BME280_humidity;BME280_pressure;Samples;Min_cycle;Max_cycle;Signal;HPM_P1;HPM_P2
2023/07/27 00:01:50;;;;;;;;;;;12.20;99.90;;;;;;5052695;28;19924;-63
2023/07/27 00:04:18;;;;;;;;;;;12.20;99.90;;;;;;5050275;28;19921;-63
2023/07/27 00:06:46;;;;;;;;;;;12.30;99.90;;;;;;5033808;28;19964;-63
2023/07/27 00:09:13;;;;;;;;;;;12.20;99.90;;;;;;5071352;28;20368;-64
2023/07/27 00:11:41;;;;;;;;;;;12.20;99.90;;;;;;5054442;28;20384;-64
2023/07/27 00:14:08;;;;;;;;;;;12.40;99.90;;;;;;5054091;28;19978;-64
2023/07/27 00:16:35;;;;;;;;;;;12.20;99.90;;;;;;5054094;28;19927;-62
2023/07/27 00:19:01;;;;;;;;;;;12.30;99.90;;;;;;5054269;28;19924;-63
2023/07/27 00:21:28;;;;;;;;;;;12.30;99.90;;;;;;5053855;28;19920;-62
2023/07/27 00:23:55;;;;;;;;;;;12.30;99.90;;;;;;5054159;28;19920;-63
2023/07/27 00:26:21;;;;;;;;;;;12.30;99.90;;;;;;5054167;28;20430;-63
2023/07/27 00:28:50;;;;;;;;;;;12.30;99.90;;;;;;5071595;28;19966;-64
2023/07/27 00:31:16;;;;;;;;;;;12.30;99.90;;;;;;5054266;28;19921;-64
2023/07/27 00:33:43;;;;;;;;;;;12.30;99.90;;;;;;5053688;28;19946;-63
2023/07/27 00:36:10;;;;;;;;;;;12.30;99.90;;;;;;5072076;28;19943;-63
2023/07/27 00:38:36;;;;;;;;;;;12.30;99.90;;;;;;5071985;28;19970;-63
2023/07/27 00:41:04;;;;;;;;;;;12.40;99.90;;;;;;5053361;28;19928;-63
2023/07/27 00:43:31;;;;;;;;;;;12.30;99.90;;;;;;5053919;28;19921;-63
2023/07/27 00:45:59;;;;;;;;;;;12.30;99.90;;;;;;5068394;28;19921;-63
2023/07/27 00:48:26;;;;;;;;;;;12.30;99.90;;;;;;5052839;28;20365;-63
2023/07/27 00:50:54;;;;;;;;;;;12.30;99.90;;;;;;5071888;28;20402;-62
2023/07/27 00:53:21;;;;;;;;;;;12.30;99.90;;;;;;5053728;28;19944;-63
2023/07/27 00:55:47;;;;;;;;;;;12.30;99.90;;;;;;5053443;28;19970;-62
2023/07/27 00:58:14;;;;;;;;;;;12.40;99.90;;;;;;5072173;28;19921;-62
2023/07/27 01:00:41;;;;;;;;;;;12.40;99.90;;;;;;5053989;28;19924;-62
2023/07/27 01:03:09;;;;;;;;;;;12.50;99.90;;;;;;5055963;28;19974;-61
2023/07/27 01:05:36;;;;;;;;;;;12.40;99.90;;;;;;5057769;28;20433;-63
2023/07/27 01:08:03;;;;;;;;;;;12.40;99.90;;;;;;5047917;28;19979;-62
2023/07/27 01:10:34;;;;;;;;;;;12.40;99.90;;;;;;5036341;28;20384;-62
2023/07/27 01:13:05;;;;;;;;;;;12.40;99.90;;;;;;5055564;28;19964;-64
2023/07/27 01:15:33;;;;;;;;;;;12.40;99.90;;;;;;5055726;28;19924;-63
2023/07/27 01:18:01;;;;;;;;;;;12.40;99.90;;;;;;5036480;28;19921;-63
2023/07/27 01:20:35;;;;;;;;;;;12.40;99.90;;;;;;5037557;28;19929;-64
2023/07/27 01:23:19;;;;;;;;;;;12.40;99.90;;;;;;5054716;28;19927;-64
2023/07/27 01:26:05;;;;;;;;;;;12.40;99.90;;;;;;5055178;28;19925;-63
2023/07/27 01:28:49;;;;;;;;;;;12.40;99.90;;;;;;5055259;28;19931;-62
2023/07/27 01:31:20;;;;;;;;;;;12.40;99.90;;;;;;5054199;28;19928;-63
2023/07/27 01:33:49;;;;;;;;;;;12.40;99.90;;;;;;5037204;28;19927;-63
2023/07/27 01:36:20;;;;;;;;;;;12.40;99.90;;;;;;5055336;28;19924;-63
2023/07/27 01:38:48;;;;;;;;;;;12.40;99.90;;;;;;5052919;28;19935;-62
2023/07/27 01:41:16;;;;;;;;;;;12.40;99.90;;;;;;5055237;28;19975;-64
2023/07/27 01:43:43;;;;;;;;;;;12.30;99.90;;;;;;5055015;28;20339;-62
2023/07/27 01:46:11;;;;;;;;;;;12.40;99.90;;;;;;5054279;28;19975;-62
2023/07/27 01:48:41;;;;;;;;;;;12.30;99.90;;;;;;5036899;28;19974;-63
2023/07/27 01:51:09;;;;;;;;;;;12.30;99.90;;;;;;5054640;28;19921;-62
2023/07/27 01:53:36;;;;;;;;;;;12.30;99.90;;;;;;5055012;28;19982;-63
2023/07/27 01:56:03;;;;;;;;;;;12.30;99.90;;;;;;5036552;28;20380;-62
2023/07/27 01:58:30;;;;;;;;;;;12.30;99.90;;;;;;5036352;28;20316;-63
2023/07/27 02:00:58;;;;;;;;;;;12.30;99.90;;;;;;5054556;28;20008;-62
2023/07/27 02:03:25;;;;;;;;;;;12.30;99.90;;;;;;5036552;28;19924;-63
2023/07/27 02:05:53;;;;;;;;;;;12.40;99.90;;;;;;5054108;28;19925;-63
2023/07/27 02:08:20;;;;;;;;;;;12.40;99.90;;;;;;5066148;28;19920;-63
2023/07/27 02:10:51;;;;;;;;;;;12.40;99.90;;;;;;5074705;28;19935;-63
2023/07/27 02:13:21;;;;;;;;;;;12.40;99.90;;;;;;5072288;28;19920;-63
2023/07/27 02:15:49;;;;;;;;;;;12.40;99.90;;;;;;5056351;28;19927;-62
2023/07/27 02:18:16;;;;;;;;;;;12.40;99.90;;;;;;5074505;28;19959;-63
2023/07/27 02:20:43;;;;;;;;;;;12.40;99.90;;;;;;5053639;28;19973;-63
2023/07/27 02:23:12;;;;;;;;;;;12.50;99.90;;;;;;5073975;28;19920;-62
2023/07/27 02:25:39;;;;;;;;;;;12.50;99.90;;;;;;5072145;28;20402;-63
2023/07/27 02:28:05;;;;;;;;;;;12.50;99.90;;;;;;5055107;28;19920;-63
2023/07/27 02:30:32;;;;;;;;;;;12.50;99.90;;;;;;5074360;28;19947;-63
2023/07/27 02:32:59;;;;;;;;;;;12.60;99.90;;;;;;5055739;28;19990;-63
2023/07/27 02:35:25;;;;;;;;;;;12.60;99.90;;;;;;5073749;28;19943;-63
2023/07/27 02:37:52;;;;;;;;;;;12.60;99.90;;;;;;5055914;28;19928;-63
2023/07/27 02:40:20;;;;;;;;;;;12.60;99.90;;;;;;5053240;28;20445;-63
2023/07/27 02:42:47;;;;;;;;;;;12.70;99.90;;;;;;5055827;28;19924;-63
2023/07/27 02:45:14;;;;;;;;;;;13.50;99.90;;;;;;5074121;28;19920;-62
2023/07/27 02:47:41;;;;;;;;;;;12.80;99.90;;;;;;5073279;28;19927;-63
2023/07/27 02:50:08;;;;;;;;;;;12.80;99.90;;;;;;5073886;28;20368;-64
2023/07/27 02:52:35;;;;;;;;;;;12.80;99.90;;;;;;5073613;28;19970;-62
2023/07/27 02:55:01;;;;;;;;;;;12.80;99.90;;;;;;5072941;28;19920;-64
2023/07/27 02:57:30;;;;;;;;;;;12.80;99.90;;;;;;5073640;28;19973;-64
2023/07/27 02:59:56;;;;;;;;;;;12.90;99.90;;;;;;5073716;28;19926;-63
2023/07/27 03:02:23;;;;;;;;;;;12.90;99.90;;;;;;5072822;28;19920;-63
2023/07/27 03:04:50;;;;;;;;;;;12.90;99.90;;;;;;5073216;28;19920;-63
2023/07/27 03:07:17;;;;;;;;;;;12.90;99.90;;;;;;5055385;28;20383;-63
2023/07/27 03:09:43;;;;;;;;;;;13.00;99.90;;;;;;5054676;28;20007;-63
2023/07/27 03:12:10;;;;;;;;;;;13.00;99.90;;;;;;5055593;28;20338;-63
2023/07/27 03:14:38;;;;;;;;;;;13.00;99.90;;;;;;5073352;28;19970;-64
2023/07/27 03:17:05;;;;;;;;;;;13.10;99.90;;;;;;5072767;28;19924;-63
2023/07/27 03:19:32;;;;;;;;;;;13.10;99.90;;;;;;5073236;28;19985;-63
2023/07/27 03:21:58;;;;;;;;;;;13.10;99.90;;;;;;5073410;28;19974;-63
2023/07/27 03:24:25;;;;;;;;;;;13.10;99.90;;;;;;5053864;28;19930;-63
2023/07/27 03:26:53;;;;;;;;;;;13.10;99.90;;;;;;5055377;28;19940;-62
2023/07/27 03:29:20;;;;;;;;;;;13.20;99.90;;;;;;5073050;28;19927;-63
2023/07/27 03:31:48;;;;;;;;;;;13.20;99.90;;;;;;5054517;28;20380;-63
2023/07/27 03:34:14;;;;;;;;;;;13.30;99.90;;;;;;5055130;28;20417;-62
2023/07/27 03:36:41;;;;;;;;;;;13.30;99.90;;;;;;5054261;28;19935;-62
2023/07/27 03:39:08;;;;;;;;;;;13.30;99.90;;;;;;5054724;28;20418;-63
2023/07/27 03:41:35;;;;;;;;;;;13.40;99.90;;;;;;5066588;28;19936;-62
2023/07/27 03:44:02;;;;;;;;;;;13.50;99.90;;;;;;5066322;28;19926;-62
2023/07/27 03:46:28;;;;;;;;;;;13.40;99.90;;;;;;5051588;28;19931;-63
2023/07/27 03:48:56;;;;;;;;;;;13.50;99.90;;;;;;5053674;28;20376;-62
2023/07/27 03:51:23;;;;;;;;;;;13.60;99.90;;;;;;5069280;28;19924;-63
2023/07/27 03:53:50;;;;;;;;;;;13.60;99.90;;;;;;5052025;28;19935;-63
2023/07/27 03:56:17;;;;;;;;;;;13.60;99.90;;;;;;5050195;28;19927;-63
2023/07/27 03:58:43;;;;;;;;;;;13.60;99.90;;;;;;5068594;28;19932;-64
2023/07/27 04:01:10;;;;;;;;;;;13.70;99.90;;;;;;5051541;28;20361;-62
2023/07/27 04:03:37;;;;;;;;;;;13.60;99.90;;;;;;5052664;28;20402;-63
2023/07/27 04:06:05;;;;;;;;;;;13.60;99.90;;;;;;5069025;28;20384;-63
2023/07/27 04:08:32;;;;;;;;;;;13.70;99.90;;;;;;5070642;28;19928;-62
2023/07/27 04:10:59;;;;;;;;;;;13.70;99.90;;;;;;5069475;28;19920;-62
2023/07/27 04:13:25;;;;;;;;;;;13.70;99.90;;;;;;5051689;28;19920;-63
2023/07/27 04:15:52;;;;;;;;;;;13.80;99.90;;;;;;5050726;28;19924;-64
2023/07/27 04:18:19;;;;;;;;;;;13.80;99.90;;;;;;5050170;28;19927;-63
2023/07/27 04:20:45;;;;;;;;;;;13.80;99.90;;;;;;5069366;28;20380;-62
2023/07/27 04:23:14;;;;;;;;;;;13.80;99.90;;;;;;5069637;28;20356;-62
2023/07/27 04:25:40;;;;;;;;;;;13.80;99.90;;;;;;5068465;28;19927;-63
2023/07/27 04:28:07;;;;;;;;;;;13.90;99.90;;;;;;5048962;28;19974;-62
2023/07/27 04:30:34;;;;;;;;;;;13.90;99.90;;;;;;5052680;28;19925;-62
2023/07/27 04:33:00;;;;;;;;;;;13.90;99.90;;;;;;5068791;28;19924;-63
2023/07/27 04:35:27;;;;;;;;;;;14.00;99.90;;;;;;5053126;28;20001;-63
2023/07/27 04:37:54;;;;;;;;;;;14.00;99.90;;;;;;5071682;28;19986;-63
2023/07/27 04:40:22;;;;;;;;;;;13.90;99.90;;;;;;5070895;28;19981;-63
2023/07/27 04:42:49;;;;;;;;;;;13.90;99.90;;;;;;5074540;28;19927;-63
2023/07/27 04:45:15;;;;;;;;;;;13.90;99.90;;;;;;5075075;28;19943;-62
2023/07/27 04:47:42;;;;;;;;;;;13.90;99.90;;;;;;5072235;28;19974;-64
2023/07/27 04:50:09;;;;;;;;;;;13.80;99.90;;;;;;5075405;28;19920;-63
2023/07/27 04:52:36;;;;;;;;;;;13.80;99.90;;;;;;5056865;28;20287;-63
2023/07/27 04:55:03;;;;;;;;;;;13.80;99.90;;;;;;5073410;28;19920;-63
2023/07/27 04:57:31;;;;;;;;;;;13.70;99.90;;;;;;5056238;28;19926;-64
2023/07/27 04:59:58;;;;;;;;;;;13.60;99.90;;;;;;5074966;28;19924;-63
2023/07/27 05:02:25;;;;;;;;;;;13.70;99.90;;;;;;5073031;28;19924;-63
2023/07/27 05:04:52;;;;;;;;;;;13.60;99.90;;;;;;5055747;28;19921;-64
2023/07/27 05:07:19;;;;;;;;;;;13.70;99.90;;;;;;5068693;28;19920;-63
2023/07/27 05:09:45;;;;;;;;;;;13.80;99.90;;;;;;5073483;28;19920;-65
2023/07/27 05:12:12;;;;;;;;;;;13.70;99.90;;;;;;5074266;28;19935;-66
2023/07/27 05:14:40;;;;;;;;;;;13.80;99.90;;;;;;5055667;28;19924;-66
2023/07/27 05:17:07;;;;;;;;;;;13.80;99.90;;;;;;5073312;28;19928;-66
2023/07/27 05:19:34;;;;;;;;;;;13.70;99.90;;;;;;5073541;28;19927;-63
2023/07/27 05:22:00;;;;;;;;;;;13.80;99.90;;;;;;5074819;28;19921;-64
2023/07/27 05:24:27;;;;;;;;;;;13.80;99.90;;;;;;5072699;28;19925;-63
2023/07/27 05:26:54;;;;;;;;;;;13.80;99.90;;;;;;5055817;28;20300;-63
2023/07/27 05:29:21;;;;;;;;;;;13.90;99.90;;;;;;5073153;28;19920;-63
2023/07/27 05:31:49;;;;;;;;;;;13.80;99.90;;;;;;5074896;28;19921;-63
2023/07/27 05:34:15;;;;;;;;;;;13.90;99.90;;;;;;5055047;28;19936;-63
2023/07/27 05:36:42;;;;;;;;;;;13.90;99.90;;;;;;5056253;28;19924;-63
2023/07/27 05:39:09;;;;;;;;;;;13.90;99.90;;;;;;5055552;28;20525;-63
2023/07/27 05:41:35;;;;;;;;;;;13.80;99.90;;;;;;5056609;28;19927;-62
2023/07/27 05:44:02;;;;;;;;;;;13.80;99.90;;;;;;5054441;28;19974;-63
2023/07/27 05:46:29;;;;;;;;;;;13.80;99.90;;;;;;5056168;28;19999;-63
2023/07/27 05:48:57;;;;;;;;;;;13.80;99.90;;;;;;5055120;28;19920;-63
2023/07/27 05:51:24;;;;;;;;;;;13.80;99.90;;;;;;5053848;28;20352;-63
2023/07/27 05:53:51;;;;;;;;;;;13.80;99.90;;;;;;5054316;28;19994;-63
2023/07/27 05:56:18;;;;;;;;;;;13.80;99.90;;;;;;5055312;28;19920;-63
2023/07/27 05:58:45;;;;;;;;;;;13.70;99.90;;;;;;5072971;28;20292;-63
2023/07/27 06:01:11;;;;;;;;;;;13.80;99.90;;;;;;5054432;28;19921;-65
2023/07/27 06:03:38;;;;;;;;;;;13.80;99.90;;;;;;5072514;28;19928;-64
2023/07/27 06:06:07;;;;;;;;;;;13.80;99.90;;;;;;5055869;28;19936;-64
2023/07/27 06:08:34;;;;;;;;;;;13.80;99.90;;;;;;5072266;28;19920;-64
2023/07/27 06:11:03;;;;;;;;;;;13.90;99.90;;;;;;5054811;28;20355;-64
2023/07/27 06:13:30;;;;;;;;;;;13.90;99.90;;;;;;5055240;28;19920;-63
2023/07/27 06:15:57;;;;;;;;;;;14.00;99.90;;;;;;5073128;28;19921;-63
2023/07/27 06:18:24;;;;;;;;;;;14.00;99.90;;;;;;5072984;28;20007;-63
2023/07/27 06:20:51;;;;;;;;;;;14.20;99.90;;;;;;5053954;28;19920;-63
2023/07/27 06:23:19;;;;;;;;;;;14.20;99.90;;;;;;5073663;28;19927;-63
2023/07/27 06:25:46;;;;;;;;;;;14.40;99.90;;;;;;5053374;28;20303;-64
2023/07/27 06:28:13;;;;;;;;;;;14.60;99.90;;;;;;5073735;28;19920;-63
2023/07/27 06:30:40;;;;;;;;;;;14.80;99.90;;;;;;5055208;28;19924;-63
2023/07/27 06:33:06;;;;;;;;;;;15.00;99.90;;;;;;5072901;28;20338;-64
2023/07/27 06:35:33;;;;;;;;;;;15.30;99.90;;;;;;5072132;28;19983;-64
2023/07/27 06:38:00;;;;;;;;;;;15.40;99.90;;;;;;5073405;28;19920;-64
2023/07/27 06:40:28;;;;;;;;;;;15.60;99.90;;;;;;5070450;28;19927;-64
2023/07/27 06:42:55;;;;;;;;;;;15.70;99.90;;;;;;5054410;28;20405;-64
2023/07/27 06:45:22;;;;;;;;;;;15.70;99.90;;;;;;5053685;28;19921;-63
2023/07/27 06:47:48;;;;;;;;;;;15.80;99.90;;;;;;5071063;28;19928;-62
2023/07/27 06:50:15;;;;;;;;;;;15.80;99.90;;;;;;5055213;28;19924;-63
2023/07/27 06:52:42;;;;;;;;;;;15.90;99.90;;;;;;5071211;28;19928;-63
2023/07/27 06:55:09;;;;;;;;;;;16.00;99.90;;;;;;5072568;28;20372;-63
2023/07/27 06:57:37;;;;;;;;;;;16.10;99.90;;;;;;5071037;28;19973;-63
2023/07/27 07:00:04;;;;;;;;;;;16.20;99.90;;;;;;5053909;28;19920;-63
2023/07/27 07:02:31;;;;;;;;;;;16.20;99.90;;;;;;5072217;28;19920;-63
2023/07/27 07:04:57;;;;;;;;;;;16.30;99.90;;;;;;5072379;28;19966;-63
2023/07/27 07:07:24;;;;;;;;;;;16.30;99.90;;;;;;5055486;28;19974;-63
2023/07/27 07:09:52;;;;;;;;;;;16.30;99.90;;;;;;5072404;28;20252;-63
2023/07/27 07:12:18;;;;;;;;;;;16.30;99.90;;;;;;5055459;28;20068;-62
2023/07/27 07:14:47;;;;;;;;;;;16.20;99.90;;;;;;5070076;28;19924;-64
2023/07/27 07:17:13;;;;;;;;;;;16.20;99.90;;;;;;5073180;28;19928;-63
2023/07/27 07:19:40;;;;;;;;;;;16.10;99.90;;;;;;5073207;28;19928;-64
2023/07/27 07:22:07;;;;;;;;;;;16.00;99.90;;;;;;5054443;28;19924;-63
2023/07/27 07:24:33;;;;;;;;;;;16.00;99.90;;;;;;5073382;28;20291;-63
2023/07/27 07:27:00;;;;;;;;;;;16.00;99.90;;;;;;5055304;28;19974;-63
2023/07/27 07:29:27;;;;;;;;;;;15.90;99.90;;;;;;5054677;28;19920;-62
2023/07/27 07:31:55;;;;;;;;;;;15.80;99.90;;;;;;5073224;28;20272;-63
2023/07/27 07:34:22;;;;;;;;;;;15.80;99.90;;;;;;5055087;28;19927;-63
2023/07/27 07:36:49;;;;;;;;;;;15.80;99.90;;;;;;5054596;28;19920;-63
2023/07/27 07:39:16;;;;;;;;;;;15.70;99.90;;;;;;5072853;28;19928;-63
2023/07/27 07:41:42;;;;;;;;;;;15.70;99.90;;;;;;5055193;28;19920;-63
2023/07/27 07:44:09;;;;;;;;;;;15.70;99.90;;;;;;5072344;28;19981;-63
2023/07/27 07:46:36;;;;;;;;;;;15.70;99.90;;;;;;5055057;28;19989;-62
2023/07/27 07:49:04;;;;;;;;;;;15.70;99.90;;;;;;5072442;28;19966;-63
2023/07/27 07:51:30;;;;;;;;;;;15.80;99.90;;;;;;5054304;28;20338;-62
2023/07/27 07:53:57;;;;;;;;;;;15.90;99.90;;;;;;5054738;28;19920;-63
2023/07/27 07:56:24;;;;;;;;;;;16.10;99.90;;;;;;5070716;28;19924;-62
2023/07/27 07:58:51;;;;;;;;;;;16.30;99.90;;;;;;5069312;28;19927;-62
2023/07/27 08:01:17;;;;;;;;;;;16.40;99.90;;;;;;5067803;28;19926;-63
2023/07/27 08:03:44;;;;;;;;;;;16.50;99.90;;;;;;5072208;28;19920;-63
2023/07/27 08:06:13;;;;;;;;;;;16.50;99.90;;;;;;5072005;28;19920;-65
2023/07/27 08:08:40;;;;;;;;;;;16.50;99.90;;;;;;5068526;28;20330;-63
2023/07/27 08:11:07;;;;;;;;;;;16.50;99.90;;;;;;5071313;28;19920;-63
2023/07/27 08:13:34;;;;;;;;;;;16.50;99.90;;;;;;5072354;28;19920;-63
2023/07/27 08:16:03;;;;;;;;;;;16.50;99.90;;;;;;5072575;28;19921;-63
2023/07/27 08:18:30;;;;;;;;;;;16.50;99.90;;;;;;5051500;28;19928;-63
2023/07/27 08:21:00;;;;;;;;;;;16.40;99.90;;;;;;5054834;28;19931;-64
2023/07/27 08:23:28;;;;;;;;;;;16.40;99.90;;;;;;5070368;28;19920;-62
2023/07/27 08:25:55;;;;;;;;;;;16.40;99.90;;;;;;5053861;28;19956;-62
2023/07/27 08:28:22;;;;;;;;;;;16.40;99.90;;;;;;5054417;28;19921;-62
2023/07/27 08:30:49;;;;;;;;;;;16.40;99.90;;;;;;5072068;28;19969;-62
2023/07/27 08:33:16;;;;;;;;;;;16.60;99.90;;;;;;5071826;28;19924;-63
2023/07/27 08:35:43;;;;;;;;;;;16.50;99.90;;;;;;5071500;28;20342;-63
2023/07/27 08:38:09;;;;;;;;;;;16.50;99.90;;;;;;5069811;28;20330;-63
2023/07/27 08:40:38;;;;;;;;;;;16.60;99.90;;;;;;5070828;28;19932;-63
2023/07/27 08:43:05;;;;;;;;;;;16.50;99.90;;;;;;5070030;28;20366;-62
2023/07/27 08:45:32;;;;;;;;;;;16.50;99.90;;;;;;5071807;28;20283;-62
2023/07/27 08:47:59;;;;;;;;;;;16.50;99.90;;;;;;5071500;28;20272;-63
2023/07/27 08:50:26;;;;;;;;;;;16.60;99.90;;;;;;5072064;28;20453;-63
2023/07/27 08:52:53;;;;;;;;;;;16.60;99.90;;;;;;5071855;28;19997;-63
2023/07/27 08:55:20;;;;;;;;;;;16.70;99.90;;;;;;5053639;28;19920;-63
2023/07/27 08:57:48;;;;;;;;;;;16.60;99.90;;;;;;5071785;28;19931;-63
2023/07/27 09:00:16;;;;;;;;;;;16.70;99.90;;;;;;5071355;28;19920;-63
2023/07/27 09:02:43;;;;;;;;;;;16.80;99.90;;;;;;5054049;28;19920;-63
2023/07/27 09:05:11;;;;;;;;;;;16.90;99.90;;;;;;5053863;28;20015;-63
2023/07/27 09:07:38;;;;;;;;;;;16.90;99.90;;;;;;5047231;28;19925;-63
2023/07/27 09:10:06;;;;;;;;;;;17.10;99.90;;;;;;5052001;28;20288;-63
2023/07/27 09:12:33;;;;;;;;;;;17.20;99.90;;;;;;5050148;28;20031;-64
2023/07/27 09:15:07;;;;;;;;;;;17.40;99.90;;;;;;5033395;28;19974;-63
2023/07/27 09:17:34;;;;;;;;;;;17.60;99.90;;;;;;5051080;28;19924;-63
2023/07/27 09:20:01;;;;;;;;;;;17.70;99.90;;;;;;5033698;28;19952;-63
2023/07/27 09:22:28;;;;;;;;;;;17.80;99.90;;;;;;5031008;28;19927;-63
2023/07/27 09:24:57;;;;;;;;;;;17.90;99.90;;;;;;5037614;28;19958;-63
2023/07/27 09:27:24;;;;;;;;;;;17.60;99.90;;;;;;5055569;28;19921;-63
2023/07/27 09:29:57;;;;;;;;;;;17.80;99.90;;;;;;5053743;28;19944;-63
2023/07/27 09:32:25;;;;;;;;;;;17.60;99.90;;;;;;5051699;28;19921;-63
2023/07/27 09:34:55;;;;;;;;;;;17.60;99.90;;;;;;5054972;28;19921;-63
2023/07/27 09:37:22;;;;;;;;;;;17.60;99.90;;;;;;5054556;28;19920;-63
2023/07/27 09:39:51;;;;;;;;;;;17.60;99.90;;;;;;5055014;28;19928;-63
2023/07/27 09:42:18;;;;;;;;;;;17.50;99.90;;;;;;5051475;28;20011;-62
2023/07/27 09:44:48;;;;;;;;;;;17.40;99.90;;;;;;5037152;28;19970;-62
2023/07/27 09:47:18;;;;;;;;;;;17.40;99.90;;;;;;5055004;28;20358;-64
2023/07/27 09:49:46;;;;;;;;;;;17.40;99.90;;;;;;5054476;28;19920;-62
2023/07/27 09:52:13;;;;;;;;;;;17.30;99.90;;;;;;5036814;28;19921;-62
2023/07/27 09:54:40;;;;;;;;;;;17.40;99.90;;;;;;5054953;28;20427;-63
2023/07/27 09:57:07;;;;;;;;;;;17.30;99.90;;;;;;5036284;28;19925;-63
2023/07/27 09:59:34;;;;;;;;;;;17.30;99.90;;;;;;5054718;28;19982;-63
2023/07/27 10:02:00;;;;;;;;;;;17.40;99.90;;;;;;5051687;28;19921;-62
2023/07/27 10:04:27;;;;;;;;;;;17.30;99.90;;;;;;5049530;28;19975;-62
2023/07/27 10:06:55;;;;;;;;;;;17.30;99.90;;;;;;5036181;28;20802;-63
2023/07/27 10:09:23;;;;;;;;;;;17.40;99.90;;;;;;5051475;28;19924;-62
2023/07/27 10:11:54;;;;;;;;;;;17.50;99.90;;;;;;5044128;28;19960;-63
2023/07/27 10:14:23;;;;;;;;;;;17.50;99.90;;;;;;5048054;28;19921;-63
2023/07/27 10:16:59;;;;;;;;;;;17.60;99.90;;;;;;5048588;28;19925;-63
2023/07/27 10:19:26;;;;;;;;;;;17.70;99.90;;;;;;5050390;28;19928;-63
2023/07/27 10:21:53;;;;;;;;;;;17.80;99.90;;;;;;5052280;28;19925;-64
2023/07/27 10:24:23;;;;;;;;;;;17.70;99.90;;;;;;5045498;28;19921;-63
2023/07/27 10:26:51;;;;;;;;;;;17.50;99.90;;;;;;5052201;28;19935;-63
2023/07/27 10:29:18;;;;;;;;;;;17.40;99.90;;;;;;5051387;28;19928;-63
2023/07/27 10:31:46;;;;;;;;;;;17.40;99.90;;;;;;5052792;28;19924;-63
2023/07/27 10:34:16;;;;;;;;;;;17.40;99.90;;;;;;5049805;28;19920;-63
2023/07/27 10:36:51;;;;;;;;;;;17.40;99.90;;;;;;5051770;28;20368;-63
2023/07/27 10:39:18;;;;;;;;;;;17.40;99.90;;;;;;5050432;28;20055;-64
2023/07/27 10:41:59;;;;;;;;;;;17.40;99.90;;;;;;5049356;28;20296;-63
2023/07/27 10:44:26;;;;;;;;;;;17.50;99.90;;;;;;5050413;28;19925;-63
2023/07/27 10:46:55;;;;;;;;;;;17.50;99.90;;;;;;5051803;28;20380;-63
2023/07/27 10:49:22;;;;;;;;;;;17.40;99.90;;;;;;5045209;28;20335;-63
2023/07/27 10:51:49;;;;;;;;;;;17.50;99.90;;;;;;5051678;28;19921;-62
2023/07/27 10:54:16;;;;;;;;;;;17.50;99.90;;;;;;5049256;28;19936;-63
2023/07/27 10:56:43;;;;;;;;;;;17.50;99.90;;;;;;5051452;28;19925;-62
2023/07/27 10:59:15;;;;;;;;;;;17.50;99.90;;;;;;5050963;28;19975;-62
2023/07/27 11:01:42;;;;;;;;;;;17.50;99.90;;;;;;5048565;28;20369;-62
2023/07/27 11:04:10;;;;;;;;;;;17.40;99.90;;;;;;5051597;28;19978;-63
2023/07/27 11:06:41;;;;;;;;;;;17.40;99.90;;;;;;5049640;28;19927;-63
2023/07/27 11:09:10;;;;;;;;;;;17.50;99.90;;;;;;5051512;28;19924;-63
2023/07/27 11:11:36;;;;;;;;;;;17.50;99.90;;;;;;5053516;28;19924;-63
2023/07/27 11:14:05;;;;;;;;;;;17.40;99.90;;;;;;5072008;28;19927;-63
2023/07/27 11:16:37;;;;;;;;;;;17.30;99.90;;;;;;5053167;28;19924;-63
2023/07/27 11:19:03;;;;;;;;;;;17.30;99.90;;;;;;5070939;28;20030;-62
2023/07/27 11:21:31;;;;;;;;;;;17.30;99.90;;;;;;5068197;28;20285;-63
2023/07/27 11:23:58;;;;;;;;;;;17.30;99.90;;;;;;5053898;28;19978;-63
2023/07/27 11:26:25;;;;;;;;;;;17.20;99.90;;;;;;5050601;28;19999;-63
2023/07/27 11:28:53;;;;;;;;;;;17.30;99.90;;;;;;5052789;28;20368;-63
2023/07/27 11:31:20;;;;;;;;;;;17.40;99.90;;;;;;5070612;28;19943;-63
2023/07/27 11:33:48;;;;;;;;;;;17.50;99.90;;;;;;5071800;28;20280;-64
2023/07/27 11:36:15;;;;;;;;;;;17.60;99.90;;;;;;5052626;28;19924;-63
2023/07/27 11:38:42;;;;;;;;;;;17.70;99.90;;;;;;5053136;28;20380;-63
2023/07/27 11:41:08;;;;;;;;;;;17.70;99.90;;;;;;5054456;28;19928;-63
2023/07/27 11:43:37;;;;;;;;;;;17.70;99.90;;;;;;5072283;28;19927;-62
2023/07/27 11:46:04;;;;;;;;;;;17.80;99.90;;;;;;5054129;28;19927;-64
2023/07/27 11:48:32;;;;;;;;;;;17.90;99.90;;;;;;5054799;28;19950;-63
2023/07/27 11:51:00;;;;;;;;;;;17.90;99.90;;;;;;5053681;28;19936;-63
2023/07/27 11:53:28;;;;;;;;;;;18.00;99.90;;;;;;5054853;28;19928;-63
2023/07/27 11:55:54;;;;;;;;;;;18.00;99.90;;;;;;5070504;28;19924;-61
2023/07/27 11:58:25;;;;;;;;;;;18.10;99.90;;;;;;5071959;28;20232;-65
2023/07/27 12:00:52;;;;;;;;;;;18.10;99.90;;;;;;5070457;28;19924;-63
2023/07/27 12:03:19;;;;;;;;;;;18.10;99.90;;;;;;5071648;28;19997;-63
2023/07/27 12:05:46;;;;;;;;;;;18.20;99.90;;;;;;5072534;28;20276;-64
2023/07/27 12:08:18;;;;;;;;;;;18.20;99.90;;;;;;5072273;28;19928;-63
2023/07/27 12:10:51;;;;;;;;;;;18.20;99.90;;;;;;5053677;28;19927;-63
2023/07/27 12:13:20;;;;;;;;;;;18.20;99.90;;;;;;5053077;28;19928;-64
2023/07/27 12:15:47;;;;;;;;;;;18.20;99.90;;;;;;5072238;28;20326;-62
2023/07/27 12:18:13;;;;;;;;;;;18.20;99.90;;;;;;5071957;28;19920;-63
2023/07/27 12:20:40;;;;;;;;;;;18.30;99.90;;;;;;5072226;28;19928;-63
2023/07/27 12:23:07;;;;;;;;;;;18.50;99.90;;;;;;5072526;28;20002;-64
2023/07/27 12:25:35;;;;;;;;;;;18.60;99.90;;;;;;5071882;28;19920;-63
2023/07/27 12:28:02;;;;;;;;;;;18.70;99.90;;;;;;5072436;28;19971;-62
2023/07/27 12:30:29;;;;;;;;;;;18.90;99.90;;;;;;5054351;28;19928;-63
2023/07/27 12:32:55;;;;;;;;;;;19.00;99.90;;;;;;5055255;28;19920;-63
2023/07/27 12:35:22;;;;;;;;;;;19.10;99.90;;;;;;5069138;28;20351;-63
2023/07/27 12:37:49;;;;;;;;;;;19.10;99.90;;;;;;5054343;28;19931;-64
2023/07/27 12:40:16;;;;;;;;;;;19.30;99.90;;;;;;5071663;28;19935;-64
2023/07/27 12:42:44;;;;;;;;;;;19.40;99.90;;;;;;5053957;28;19977;-64
2023/07/27 12:45:11;;;;;;;;;;;19.40;99.90;;;;;;5059287;28;19974;-64
2023/07/27 12:47:38;;;;;;;;;;;19.40;99.90;;;;;;5019235;28;19921;-64
2023/07/27 12:50:05;;;;;;;;;;;19.50;99.90;;;;;;5072014;28;19921;-64
2023/07/27 12:52:32;;;;;;;;;;;19.50;99.90;;;;;;5071280;28;19920;-63
2023/07/27 12:54:59;;;;;;;;;;;19.50;99.90;;;;;;5053870;28;19928;-64
2023/07/27 12:57:25;;;;;;;;;;;19.60;99.90;;;;;;5072069;28;19920;-64
2023/07/27 12:59:53;;;;;;;;;;;19.70;99.90;;;;;;5056993;28;19921;-64
2023/07/27 13:02:20;;;;;;;;;;;19.90;99.90;;;;;;5075728;28;19921;-64
2023/07/27 13:04:47;;;;;;;;;;;19.90;99.90;;;;;;5057513;28;20384;-64
2023/07/27 13:07:14;;;;;;;;;;;20.10;99.90;;;;;;5057154;28;19924;-64
2023/07/27 13:09:40;;;;;;;;;;;20.10;99.90;;;;;;5057631;28;19927;-63
2023/07/27 13:12:08;;;;;;;;;;;20.10;99.90;;;;;;5074934;28;19964;-64
2023/07/27 13:14:34;;;;;;;;;;;20.20;99.90;;;;;;5057172;28;19921;-63
2023/07/27 13:17:03;;;;;;;;;;;20.20;99.90;;;;;;5057316;28;20341;-63
2023/07/27 13:19:29;;;;;;;;;;;20.30;99.90;;;;;;5057540;28;19921;-63
2023/07/27 13:21:56;;;;;;;;;;;20.40;99.90;;;;;;5074754;28;19920;-65
2023/07/27 13:24:23;;;;;;;;;;;20.50;99.90;;;;;;5075332;28;19920;-64
2023/07/27 13:26:50;;;;;;;;;;;20.70;99.90;;;;;;5074686;28;19935;-64
2023/07/27 13:29:16;;;;;;;;;;;20.80;99.90;;;;;;5074267;28;19924;-64
2023/07/27 13:31:43;;;;;;;;;;;20.70;99.90;;;;;;5056917;28;20292;-63
2023/07/27 13:34:11;;;;;;;;;;;20.60;99.90;;;;;;5074515;28;19921;-63
2023/07/27 13:36:38;;;;;;;;;;;20.60;99.90;;;;;;5055815;28;19920;-62
2023/07/27 13:39:05;;;;;;;;;;;20.40;99.90;;;;;;5075279;28;19927;-63
2023/07/27 13:41:31;;;;;;;;;;;20.20;99.90;;;;;;5074232;28;19920;-63
2023/07/27 13:43:58;;;;;;;;;;;20.00;99.90;;;;;;5056889;28;20376;-63
2023/07/27 13:46:25;;;;;;;;;;;20.00;99.90;;;;;;5074950;28;19920;-63
2023/07/27 13:48:52;;;;;;;;;;;20.00;99.90;;;;;;5074193;28;19924;-63
2023/07/27 13:51:20;;;;;;;;;;;20.10;99.90;;;;;;5056881;28;19928;-64
2023/07/27 13:53:46;;;;;;;;;;;20.20;99.90;;;;;;5056893;28;19921;-63
2023/07/27 13:56:13;;;;;;;;;;;20.20;99.90;;;;;;5056170;28;19920;-63
2023/07/27 13:58:40;;;;;;;;;;;20.20;99.90;;;;;;5056557;28;19920;-64
2023/07/27 14:01:07;;;;;;;;;;;20.20;99.90;;;;;;5056736;28;20368;-64
2023/07/27 14:03:33;;;;;;;;;;;20.30;99.90;;;;;;5074238;28;19920;-64
2023/07/27 14:06:00;;;;;;;;;;;20.20;99.90;;;;;;5054512;28;20307;-64
2023/07/27 14:08:28;;;;;;;;;;;20.20;99.90;;;;;;5052409;28;20026;-64
2023/07/27 14:10:55;;;;;;;;;;;20.30;99.90;;;;;;5043414;28;19994;-64
2023/07/27 14:13:22;;;;;;;;;;;20.40;99.90;;;;;;5053014;28;19920;-65
2023/07/27 14:15:48;;;;;;;;;;;20.60;99.90;;;;;;5054567;28;20412;-65
2023/07/27 14:18:16;;;;;;;;;;;20.70;99.90;;;;;;5071893;28;19920;-63